Englewood Beach, Florida
Current Conditions -  °F | °C
As of 11:15 PM on Sunday 25 Jan 2015 (Local Time) from KVNC Reporting Station
Clear Clear  
Wind Chill: 64°   Ceiling: Unl
Heat Index: 64°   Visibility: 10mi
Dew Point: 52°   Wind: 9mph
Humidity: 64%   Direction: 230°SW
Pressure: 29.99"   Gusts: NA
Location:  26.9866°N, 82.345°W
Report Text: KVNC 260415Z AUTO 23008KT 10SM CLR 18/11 A2999 RMK AO2 TSNO
Loading
Personal Weather Stations






























Interactive Weather Map New forecast layout! Learn more

10-Day Weather Forecast

Advertisements
Track Severe Weather on mobile